sensor_id;sensor_type;location;lat;lon;timestamp;P1;durP1;ratioP1;P2;durP2;ratioP2
9459;SDS011;4768;42.664;23.240;2022-07-21T00:00:17;2.00;;;1.70;;
9459;SDS011;4768;42.664;23.240;2022-07-21T00:02:46;3.07;;;1.70;;
9459;SDS011;4768;42.664;23.240;2022-07-21T00:05:13;1.93;;;1.80;;
9459;SDS011;4768;42.664;23.240;2022-07-21T00:07:39;4.63;;;1.90;;
9459;SDS011;4768;42.664;23.240;2022-07-21T00:10:06;2.03;;;1.83;;
9459;SDS011;4768;42.664;23.240;2022-07-21T00:12:35;2.27;;;1.80;;
9459;SDS011;4768;42.664;23.240;2022-07-21T00:15:02;1.80;;;1.70;;
9459;SDS011;4768;42.664;23.240;2022-07-21T00:17:29;7.40;;;2.00;;
9459;SDS011;4768;42.664;23.240;2022-07-21T00:19:56;1.83;;;1.73;;
9459;SDS011;4768;42.664;23.240;2022-07-21T00:22:23;1.83;;;1.63;;
9459;SDS011;4768;42.664;23.240;2022-07-21T00:24:50;2.03;;;1.60;;
9459;SDS011;4768;42.664;23.240;2022-07-21T00:27:16;1.80;;;1.70;;
9459;SDS011;4768;42.664;23.240;2022-07-21T00:29:45;2.00;;;1.80;;
9459;SDS011;4768;42.664;23.240;2022-07-21T00:32:11;3.53;;;1.80;;
9459;SDS011;4768;42.664;23.240;2022-07-21T00:34:38;1.60;;;1.50;;
9459;SDS011;4768;42.664;23.240;2022-07-21T00:37:05;1.77;;;1.67;;
9459;SDS011;4768;42.664;23.240;2022-07-21T00:39:31;3.53;;;1.67;;
9459;SDS011;4768;42.664;23.240;2022-07-21T00:41:58;2.30;;;1.70;;
9459;SDS011;4768;42.664;23.240;2022-07-21T00:44:26;3.83;;;1.60;;
9459;SDS011;4768;42.664;23.240;2022-07-21T00:46:55;2.20;;;2.00;;
9459;SDS011;4768;42.664;23.240;2022-07-21T00:49:22;2.60;;;1.70;;
9459;SDS011;4768;42.664;23.240;2022-07-21T00:51:50;3.80;;;1.47;;
9459;SDS011;4768;42.664;23.240;2022-07-21T00:54:18;2.70;;;2.10;;
9459;SDS011;4768;42.664;23.240;2022-07-21T00:56:45;5.60;;;1.93;;
9459;SDS011;4768;42.664;23.240;2022-07-21T00:59:12;2.43;;;1.93;;
9459;SDS011;4768;42.664;23.240;2022-07-21T01:01:40;3.30;;;1.90;;
9459;SDS011;4768;42.664;23.240;2022-07-21T01:04:09;1.73;;;1.63;;
9459;SDS011;4768;42.664;23.240;2022-07-21T01:06:35;1.90;;;1.60;;
9459;SDS011;4768;42.664;23.240;2022-07-21T01:09:02;2.80;;;1.90;;
9459;SDS011;4768;42.664;23.240;2022-07-21T01:11:29;4.23;;;2.00;;
9459;SDS011;4768;42.664;23.240;2022-07-21T01:13:57;1.97;;;1.80;;
9459;SDS011;4768;42.664;23.240;2022-07-21T01:16:24;2.20;;;2.00;;
9459;SDS011;4768;42.664;23.240;2022-07-21T01:18:51;3.43;;;1.73;;
9459;SDS011;4768;42.664;23.240;2022-07-21T01:24:05;2.23;;;1.60;;
9459;SDS011;4768;42.664;23.240;2022-07-21T01:26:39;1.83;;;1.70;;
9459;SDS011;4768;42.664;23.240;2022-07-21T01:29:06;1.83;;;1.53;;
9459;SDS011;4768;42.664;23.240;2022-07-21T01:31:33;2.13;;;1.87;;
9459;SDS011;4768;42.664;23.240;2022-07-21T01:34:00;4.70;;;2.03;;
9459;SDS011;4768;42.664;23.240;2022-07-21T01:36:27;2.10;;;2.00;;
9459;SDS011;4768;42.664;23.240;2022-07-21T01:38:55;1.93;;;1.83;;
9459;SDS011;4768;42.664;23.240;2022-07-21T01:41:40;2.57;;;1.77;;
9459;SDS011;4768;42.664;23.240;2022-07-21T01:44:07;2.10;;;2.00;;
9459;SDS011;4768;42.664;23.240;2022-07-21T01:46:36;3.90;;;1.80;;
9459;SDS011;4768;42.664;23.240;2022-07-21T01:49:03;4.67;;;2.13;;
9459;SDS011;4768;42.664;23.240;2022-07-21T01:51:31;1.93;;;1.83;;
9459;SDS011;4768;42.664;23.240;2022-07-21T01:54:00;5.93;;;2.00;;
9459;SDS011;4768;42.664;23.240;2022-07-21T01:56:27;2.43;;;1.87;;
9459;SDS011;4768;42.664;23.240;2022-07-21T01:58:54;2.50;;;1.93;;
9459;SDS011;4768;42.664;23.240;2022-07-21T02:01:23;4.90;;;1.97;;
9459;SDS011;4768;42.664;23.240;2022-07-21T02:03:51;3.83;;;1.77;;
9459;SDS011;4768;42.664;23.240;2022-07-21T02:06:19;1.90;;;1.80;;
9459;SDS011;4768;42.664;23.240;2022-07-21T02:08:46;3.13;;;2.00;;
9459;SDS011;4768;42.664;23.240;2022-07-21T02:11:14;3.20;;;2.00;;
9459;SDS011;4768;42.664;23.240;2022-07-21T02:13:42;3.20;;;2.03;;
9459;SDS011;4768;42.664;23.240;2022-07-21T02:16:09;2.17;;;1.97;;
9459;SDS011;4768;42.664;23.240;2022-07-21T02:18:36;3.77;;;1.93;;
9459;SDS011;4768;42.664;23.240;2022-07-21T02:21:03;3.67;;;1.97;;
9459;SDS011;4768;42.664;23.240;2022-07-21T02:23:31;2.17;;;1.97;;
9459;SDS011;4768;42.664;23.240;2022-07-21T02:25:59;3.87;;;2.00;;
9459;SDS011;4768;42.664;23.240;2022-07-21T02:28:27;1.90;;;1.63;;
9459;SDS011;4768;42.664;23.240;2022-07-21T02:30:54;2.97;;;1.90;;
9459;SDS011;4768;42.664;23.240;2022-07-21T02:33:21;2.33;;;1.80;;
9459;SDS011;4768;42.664;23.240;2022-07-21T02:35:48;3.63;;;1.97;;
9459;SDS011;4768;42.664;23.240;2022-07-21T02:38:14;2.07;;;1.87;;
9459;SDS011;4768;42.664;23.240;2022-07-21T02:40:41;3.77;;;2.07;;
9459;SDS011;4768;42.664;23.240;2022-07-21T02:43:08;2.27;;;2.07;;
9459;SDS011;4768;42.664;23.240;2022-07-21T02:45:36;2.27;;;2.03;;
9459;SDS011;4768;42.664;23.240;2022-07-21T02:48:08;3.77;;;2.10;;
9459;SDS011;4768;42.664;23.240;2022-07-21T02:50:37;2.10;;;1.90;;
9459;SDS011;4768;42.664;23.240;2022-07-21T02:53:06;3.60;;;2.67;;
9459;SDS011;4768;42.664;23.240;2022-07-21T02:55:34;3.67;;;2.23;;
9459;SDS011;4768;42.664;23.240;2022-07-21T02:58:05;3.67;;;2.43;;
9459;SDS011;4768;42.664;23.240;2022-07-21T03:00:34;4.33;;;2.30;;
9459;SDS011;4768;42.664;23.240;2022-07-21T03:03:02;6.27;;;2.80;;
9459;SDS011;4768;42.664;23.240;2022-07-21T03:05:30;5.00;;;2.30;;
9459;SDS011;4768;42.664;23.240;2022-07-21T03:07:58;3.00;;;2.70;;
9459;SDS011;4768;42.664;23.240;2022-07-21T03:10:25;3.10;;;2.37;;
9459;SDS011;4768;42.664;23.240;2022-07-21T03:12:51;2.67;;;2.47;;
9459;SDS011;4768;42.664;23.240;2022-07-21T03:15:18;4.47;;;2.70;;
9459;SDS011;4768;42.664;23.240;2022-07-21T03:17:45;4.23;;;2.80;;
9459;SDS011;4768;42.664;23.240;2022-07-21T03:20:13;7.03;;;2.37;;
9459;SDS011;4768;42.664;23.240;2022-07-21T03:22:41;4.50;;;2.30;;
9459;SDS011;4768;42.664;23.240;2022-07-21T03:25:08;4.37;;;2.17;;
9459;SDS011;4768;42.664;23.240;2022-07-21T03:27:34;2.67;;;2.10;;
9459;SDS011;4768;42.664;23.240;2022-07-21T03:30:03;2.30;;;2.10;;
9459;SDS011;4768;42.664;23.240;2022-07-21T03:32:32;5.10;;;2.27;;
9459;SDS011;4768;42.664;23.240;2022-07-21T03:34:58;2.73;;;2.53;;
9459;SDS011;4768;42.664;23.240;2022-07-21T03:37:27;4.23;;;3.10;;
9459;SDS011;4768;42.664;23.240;2022-07-21T03:39:54;3.07;;;2.77;;
9459;SDS011;4768;42.664;23.240;2022-07-21T03:42:20;8.77;;;2.73;;
9459;SDS011;4768;42.664;23.240;2022-07-21T03:44:47;4.87;;;2.67;;
9459;SDS011;4768;42.664;23.240;2022-07-21T03:47:14;3.77;;;2.80;;
9459;SDS011;4768;42.664;23.240;2022-07-21T03:49:41;6.57;;;2.83;;
9459;SDS011;4768;42.664;23.240;2022-07-21T03:52:09;4.47;;;3.10;;
9459;SDS011;4768;42.664;23.240;2022-07-21T03:54:37;3.80;;;3.40;;
9459;SDS011;4768;42.664;23.240;2022-07-21T03:57:04;3.67;;;2.70;;
9459;SDS011;4768;42.664;23.240;2022-07-21T03:59:30;4.00;;;2.80;;
9459;SDS011;4768;42.664;23.240;2022-07-21T04:01:58;5.00;;;2.90;;
9459;SDS011;4768;42.664;23.240;2022-07-21T04:04:25;4.07;;;3.13;;
9459;SDS011;4768;42.664;23.240;2022-07-21T04:06:52;6.87;;;2.90;;
9459;SDS011;4768;42.664;23.240;2022-07-21T04:09:18;4.93;;;3.10;;
9459;SDS011;4768;42.664;23.240;2022-07-21T04:11:46;4.10;;;2.73;;
9459;SDS011;4768;42.664;23.240;2022-07-21T04:14:14;5.57;;;3.07;;
9459;SDS011;4768;42.664;23.240;2022-07-21T04:16:41;4.33;;;3.40;;
9459;SDS011;4768;42.664;23.240;2022-07-21T04:19:07;5.47;;;3.23;;
9459;SDS011;4768;42.664;23.240;2022-07-21T04:26:24;4.68;;;3.50;;
9459;SDS011;4768;42.664;23.240;2022-07-21T04:28:53;5.33;;;3.43;;
9459;SDS011;4768;42.664;23.240;2022-07-21T04:31:21;8.70;;;3.43;;
9459;SDS011;4768;42.664;23.240;2022-07-21T04:33:47;12.83;;;3.27;;
9459;SDS011;4768;42.664;23.240;2022-07-21T04:36:14;6.03;;;3.33;;
9459;SDS011;4768;42.664;23.240;2022-07-21T04:38:41;4.73;;;3.37;;
9459;SDS011;4768;42.664;23.240;2022-07-21T04:41:07;5.33;;;3.80;;
9459;SDS011;4768;42.664;23.240;2022-07-21T04:43:34;5.33;;;3.83;;
9459;SDS011;4768;42.664;23.240;2022-07-21T04:46:02;9.67;;;3.87;;
9459;SDS011;4768;42.664;23.240;2022-07-21T04:50:54;9.20;;;4.10;;
9459;SDS011;4768;42.664;23.240;2022-07-21T04:53:21;6.07;;;3.80;;
9459;SDS011;4768;42.664;23.240;2022-07-21T04:55:48;10.83;;;4.00;;
9459;SDS011;4768;42.664;23.240;2022-07-21T04:58:17;10.30;;;4.40;;
9459;SDS011;4768;42.664;23.240;2022-07-21T05:00:45;6.23;;;4.17;;
9459;SDS011;4768;42.664;23.240;2022-07-21T05:03:13;8.40;;;3.90;;
9459;SDS011;4768;42.664;23.240;2022-07-21T05:05:40;10.00;;;4.27;;
9459;SDS011;4768;42.664;23.240;2022-07-21T05:08:06;10.53;;;4.40;;
9459;SDS011;4768;42.664;23.240;2022-07-21T05:15:24;5.43;;;4.27;;
9459;SDS011;4768;42.664;23.240;2022-07-21T05:17:50;7.80;;;4.57;;
9459;SDS011;4768;42.664;23.240;2022-07-21T05:20:18;9.13;;;4.50;;
9459;SDS011;4768;42.664;23.240;2022-07-21T05:22:45;8.33;;;4.57;;
9459;SDS011;4768;42.664;23.240;2022-07-21T05:27:37;10.67;;;4.20;;
9459;SDS011;4768;42.664;23.240;2022-07-21T05:30:04;14.63;;;4.33;;
9459;SDS011;4768;42.664;23.240;2022-07-21T05:32:32;11.13;;;4.97;;
9459;SDS011;4768;42.664;23.240;2022-07-21T05:34:58;7.70;;;4.13;;
9459;SDS011;4768;42.664;23.240;2022-07-21T05:37:26;8.67;;;4.73;;
9459;SDS011;4768;42.664;23.240;2022-07-21T05:39:53;12.37;;;4.20;;
9459;SDS011;4768;42.664;23.240;2022-07-21T05:42:20;7.83;;;4.10;;
9459;SDS011;4768;42.664;23.240;2022-07-21T05:44:47;6.70;;;4.00;;
9459;SDS011;4768;42.664;23.240;2022-07-21T05:47:13;11.30;;;3.90;;
9459;SDS011;4768;42.664;23.240;2022-07-21T05:49:40;8.80;;;3.90;;
9459;SDS011;4768;42.664;23.240;2022-07-21T05:52:07;7.30;;;4.43;;
9459;SDS011;4768;42.664;23.240;2022-07-21T05:54:35;7.00;;;3.80;;
9459;SDS011;4768;42.664;23.240;2022-07-21T05:57:02;6.33;;;4.03;;
9459;SDS011;4768;42.664;23.240;2022-07-21T05:59:29;7.33;;;3.70;;
9459;SDS011;4768;42.664;23.240;2022-07-21T06:01:55;9.65;;;4.00;;
9459;SDS011;4768;42.664;23.240;2022-07-21T06:04:22;17.30;;;3.78;;
9459;SDS011;4768;42.664;23.240;2022-07-21T06:06:49;8.00;;;3.75;;
9459;SDS011;4768;42.664;23.240;2022-07-21T06:09:17;11.40;;;3.67;;
9459;SDS011;4768;42.664;23.240;2022-07-21T06:11:45;9.95;;;3.97;;
9459;SDS011;4768;42.664;23.240;2022-07-21T06:14:12;9.45;;;3.38;;
9459;SDS011;4768;42.664;23.240;2022-07-21T06:16:39;7.82;;;3.40;;
9459;SDS011;4768;42.664;23.240;2022-07-21T06:19:06;6.72;;;3.17;;
9459;SDS011;4768;42.664;23.240;2022-07-21T06:21:32;11.00;;;3.80;;
9459;SDS011;4768;42.664;23.240;2022-07-21T06:23:59;8.05;;;3.25;;
9459;SDS011;4768;42.664;23.240;2022-07-21T06:26:26;10.07;;;3.47;;
9459;SDS011;4768;42.664;23.240;2022-07-21T06:28:55;7.90;;;3.83;;
9459;SDS011;4768;42.664;23.240;2022-07-21T06:31:22;6.20;;;3.60;;
9459;SDS011;4768;42.664;23.240;2022-07-21T06:33:49;8.00;;;3.42;;
9459;SDS011;4768;42.664;23.240;2022-07-21T06:36:15;12.65;;;3.72;;
9459;SDS011;4768;42.664;23.240;2022-07-21T06:38:42;17.13;;;3.97;;
9459;SDS011;4768;42.664;23.240;2022-07-21T06:41:10;7.95;;;3.88;;
9459;SDS011;4768;42.664;23.240;2022-07-21T06:43:37;7.32;;;3.25;;
9459;SDS011;4768;42.664;23.240;2022-07-21T06:46:05;8.50;;;3.53;;
9459;SDS011;4768;42.664;23.240;2022-07-21T06:48:32;6.53;;;3.47;;
9459;SDS011;4768;42.664;23.240;2022-07-21T06:50:59;4.60;;;3.35;;
9459;SDS011;4768;42.664;23.240;2022-07-21T06:53:26;9.50;;;3.47;;
9459;SDS011;4768;42.664;23.240;2022-07-21T06:55:53;6.97;;;3.40;;
9459;SDS011;4768;42.664;23.240;2022-07-21T06:58:20;9.20;;;3.70;;
9459;SDS011;4768;42.664;23.240;2022-07-21T07:00:49;10.57;;;2.97;;
9459;SDS011;4768;42.664;23.240;2022-07-21T07:03:18;4.85;;;2.83;;
9459;SDS011;4768;42.664;23.240;2022-07-21T07:05:46;5.15;;;3.13;;
9459;SDS011;4768;42.664;23.240;2022-07-21T07:08:14;6.00;;;2.22;;
9459;SDS011;4768;42.664;23.240;2022-07-21T07:10:41;6.55;;;2.78;;
9459;SDS011;4768;42.664;23.240;2022-07-21T07:13:09;3.42;;;2.42;;
9459;SDS011;4768;42.664;23.240;2022-07-21T07:15:36;4.80;;;2.40;;
9459;SDS011;4768;42.664;23.240;2022-07-21T07:18:03;3.75;;;2.85;;
9459;SDS011;4768;42.664;23.240;2022-07-21T07:20:31;4.10;;;2.58;;
9459;SDS011;4768;42.664;23.240;2022-07-21T07:22:58;4.45;;;1.98;;
9459;SDS011;4768;42.664;23.240;2022-07-21T07:25:25;3.58;;;2.50;;
9459;SDS011;4768;42.664;23.240;2022-07-21T07:27:52;5.28;;;2.75;;
9459;SDS011;4768;42.664;23.240;2022-07-21T07:30:19;2.85;;;2.40;;
9459;SDS011;4768;42.664;23.240;2022-07-21T07:32:46;7.85;;;2.85;;
9459;SDS011;4768;42.664;23.240;2022-07-21T07:35:13;3.17;;;2.60;;
9459;SDS011;4768;42.664;23.240;2022-07-21T07:37:43;2.58;;;2.38;;
9459;SDS011;4768;42.664;23.240;2022-07-21T07:40:12;4.75;;;2.40;;
9459;SDS011;4768;42.664;23.240;2022-07-21T07:42:40;3.83;;;2.55;;
9459;SDS011;4768;42.664;23.240;2022-07-21T07:45:07;6.20;;;2.80;;
9459;SDS011;4768;42.664;23.240;2022-07-21T07:47:35;3.70;;;2.25;;
9459;SDS011;4768;42.664;23.240;2022-07-21T07:50:02;2.13;;;1.90;;
9459;SDS011;4768;42.664;23.240;2022-07-21T07:52:30;4.15;;;2.33;;
9459;SDS011;4768;42.664;23.240;2022-07-21T07:54:58;2.20;;;2.00;;
9459;SDS011;4768;42.664;23.240;2022-07-21T07:57:25;5.45;;;1.98;;
9459;SDS011;4768;42.664;23.240;2022-07-21T07:59:52;7.43;;;2.10;;
9459;SDS011;4768;42.664;23.240;2022-07-21T08:02:18;1.90;;;1.80;;
9459;SDS011;4768;42.664;23.240;2022-07-21T08:04:45;2.20;;;1.95;;
9459;SDS011;4768;42.664;23.240;2022-07-21T08:07:12;4.15;;;2.08;;
9459;SDS011;4768;42.664;23.240;2022-07-21T08:09:38;4.32;;;2.05;;
9459;SDS011;4768;42.664;23.240;2022-07-21T08:12:07;2.75;;;2.05;;
9459;SDS011;4768;42.664;23.240;2022-07-21T08:14:34;7.03;;;2.20;;
9459;SDS011;4768;42.664;23.240;2022-07-21T08:17:01;2.20;;;2.00;;
9459;SDS011;4768;42.664;23.240;2022-07-21T08:19:28;5.75;;;2.25;;
9459;SDS011;4768;42.664;23.240;2022-07-21T08:21:54;4.18;;;2.20;;
9459;SDS011;4768;42.664;23.240;2022-07-21T08:24:21;2.30;;;1.90;;
9459;SDS011;4768;42.664;23.240;2022-07-21T08:26:48;1.98;;;1.88;;
9459;SDS011;4768;42.664;23.240;2022-07-21T08:29:16;6.07;;;1.95;;
9459;SDS011;4768;42.664;23.240;2022-07-21T08:31:42;4.25;;;2.22;;
9459;SDS011;4768;42.664;23.240;2022-07-21T08:34:09;4.20;;;1.95;;
9459;SDS011;4768;42.664;23.240;2022-07-21T08:36:36;2.30;;;1.70;;
9459;SDS011;4768;42.664;23.240;2022-07-21T08:39:03;3.85;;;2.13;;
9459;SDS011;4768;42.664;23.240;2022-07-21T08:41:30;2.15;;;2.00;;
9459;SDS011;4768;42.664;23.240;2022-07-21T08:43:58;5.20;;;1.80;;
9459;SDS011;4768;42.664;23.240;2022-07-21T08:46:27;3.67;;;2.15;;
9459;SDS011;4768;42.664;23.240;2022-07-21T08:48:54;6.13;;;2.28;;
9459;SDS011;4768;42.664;23.240;2022-07-21T08:51:23;2.80;;;1.90;;
9459;SDS011;4768;42.664;23.240;2022-07-21T08:53:51;3.03;;;2.10;;
9459;SDS011;4768;42.664;23.240;2022-07-21T08:56:18;2.30;;;1.85;;
9459;SDS011;4768;42.664;23.240;2022-07-21T08:58:45;5.90;;;2.00;;
9459;SDS011;4768;42.664;23.240;2022-07-21T09:01:12;3.80;;;2.47;;
9459;SDS011;4768;42.664;23.240;2022-07-21T09:03:40;2.08;;;1.98;;
9459;SDS011;4768;42.664;23.240;2022-07-21T09:06:07;3.47;;;2.47;;
9459;SDS011;4768;42.664;23.240;2022-07-21T09:08:36;2.40;;;2.20;;
9459;SDS011;4768;42.664;23.240;2022-07-21T09:11:11;2.95;;;2.28;;
9459;SDS011;4768;42.664;23.240;2022-07-21T09:13:40;5.32;;;2.08;;
9459;SDS011;4768;42.664;23.240;2022-07-21T09:16:08;3.65;;;2.22;;
9459;SDS011;4768;42.664;23.240;2022-07-21T09:18:43;6.78;;;2.13;;
9459;SDS011;4768;42.664;23.240;2022-07-21T09:21:14;6.32;;;2.38;;
9459;SDS011;4768;42.664;23.240;2022-07-21T09:23:42;2.70;;;2.28;;
9459;SDS011;4768;42.664;23.240;2022-07-21T09:26:09;3.20;;;2.20;;
9459;SDS011;4768;42.664;23.240;2022-07-21T09:28:36;3.40;;;2.50;;
9459;SDS011;4768;42.664;23.240;2022-07-21T09:31:03;4.28;;;1.92;;
9459;SDS011;4768;42.664;23.240;2022-07-21T09:33:32;4.15;;;2.75;;
9459;SDS011;4768;42.664;23.240;2022-07-21T09:36:03;3.97;;;2.35;;
9459;SDS011;4768;42.664;23.240;2022-07-21T09:38:34;2.80;;;2.20;;
9459;SDS011;4768;42.664;23.240;2022-07-21T09:41:08;2.95;;;2.20;;
9459;SDS011;4768;42.664;23.240;2022-07-21T09:43:38;3.28;;;2.67;;
9459;SDS011;4768;42.664;23.240;2022-07-21T09:46:13;2.60;;;2.30;;
9459;SDS011;4768;42.664;23.240;2022-07-21T09:48:42;2.25;;;2.15;;
9459;SDS011;4768;42.664;23.240;2022-07-21T09:51:24;2.70;;;2.28;;
9459;SDS011;4768;42.664;23.240;2022-07-21T09:53:54;2.50;;;2.30;;
9459;SDS011;4768;42.664;23.240;2022-07-21T09:56:23;3.63;;;2.83;;
9459;SDS011;4768;42.664;23.240;2022-07-21T09:58:52;4.82;;;2.60;;
9459;SDS011;4768;42.664;23.240;2022-07-21T10:01:20;3.97;;;2.30;;
9459;SDS011;4768;42.664;23.240;2022-07-21T10:03:47;3.13;;;2.35;;
9459;SDS011;4768;42.664;23.240;2022-07-21T10:06:16;3.85;;;2.42;;
9459;SDS011;4768;42.664;23.240;2022-07-21T10:08:45;7.43;;;2.92;;
9459;SDS011;4768;42.664;23.240;2022-07-21T10:11:12;2.55;;;2.10;;
9459;SDS011;4768;42.664;23.240;2022-07-21T10:13:39;3.17;;;2.47;;
9459;SDS011;4768;42.664;23.240;2022-07-21T10:16:08;2.70;;;2.50;;
9459;SDS011;4768;42.664;23.240;2022-07-21T10:18:37;2.22;;;2.03;;
9459;SDS011;4768;42.664;23.240;2022-07-21T10:21:10;2.70;;;2.22;;
9459;SDS011;4768;42.664;23.240;2022-07-21T10:23:54;4.90;;;2.33;;
9459;SDS011;4768;42.664;23.240;2022-07-21T10:26:21;3.20;;;2.35;;
9459;SDS011;4768;42.664;23.240;2022-07-21T10:28:48;3.15;;;2.20;;
9459;SDS011;4768;42.664;23.240;2022-07-21T10:31:16;2.47;;;2.28;;
9459;SDS011;4768;42.664;23.240;2022-07-21T10:33:51;6.47;;;2.17;;
9459;SDS011;4768;42.664;23.240;2022-07-21T10:36:39;2.50;;;2.30;;
9459;SDS011;4768;42.664;23.240;2022-07-21T10:41:46;2.67;;;2.35;;
9459;SDS011;4768;42.664;23.240;2022-07-21T10:44:37;2.63;;;2.10;;
9459;SDS011;4768;42.664;23.240;2022-07-21T10:47:08;4.38;;;2.20;;
9459;SDS011;4768;42.664;23.240;2022-07-21T10:49:44;2.55;;;2.15;;
9459;SDS011;4768;42.664;23.240;2022-07-21T10:55:24;2.33;;;2.13;;
9459;SDS011;4768;42.664;23.240;2022-07-21T10:58:09;3.38;;;2.20;;
9459;SDS011;4768;42.664;23.240;2022-07-21T11:00:44;2.28;;;2.17;;
9459;SDS011;4768;42.664;23.240;2022-07-21T11:03:14;5.53;;;2.50;;
9459;SDS011;4768;42.664;23.240;2022-07-21T11:08:42;2.78;;;2.33;;
9459;SDS011;4768;42.664;23.240;2022-07-21T11:11:11;3.08;;;2.40;;
9459;SDS011;4768;42.664;23.240;2022-07-21T11:13:58;4.18;;;2.33;;
9459;SDS011;4768;42.664;23.240;2022-07-21T11:19:35;4.03;;;2.33;;
9459;SDS011;4768;42.664;23.240;2022-07-21T11:22:09;2.25;;;2.05;;
9459;SDS011;4768;42.664;23.240;2022-07-21T11:24:37;2.30;;;1.88;;
9459;SDS011;4768;42.664;23.240;2022-07-21T11:27:08;2.47;;;2.28;;
9459;SDS011;4768;42.664;23.240;2022-07-21T11:29:37;3.80;;;2.38;;
9459;SDS011;4768;42.664;23.240;2022-07-21T11:32:05;3.15;;;2.22;;
9459;SDS011;4768;42.664;23.240;2022-07-21T11:34:36;2.28;;;2.08;;
9459;SDS011;4768;42.664;23.240;2022-07-21T11:37:05;2.40;;;2.20;;
9459;SDS011;4768;42.664;23.240;2022-07-21T11:39:32;4.72;;;2.30;;
9459;SDS011;4768;42.664;23.240;2022-07-21T11:42:01;3.15;;;2.25;;
9459;SDS011;4768;42.664;23.240;2022-07-21T11:44:30;2.83;;;2.40;;
9459;SDS011;4768;42.664;23.240;2022-07-21T11:46:58;3.75;;;2.20;;
9459;SDS011;4768;42.664;23.240;2022-07-21T11:49:26;2.70;;;2.00;;
9459;SDS011;4768;42.664;23.240;2022-07-21T11:51:54;4.40;;;2.22;;
9459;SDS011;4768;42.664;23.240;2022-07-21T11:54:23;3.17;;;2.35;;
9459;SDS011;4768;42.664;23.240;2022-07-21T11:56:52;4.35;;;2.30;;
9459;SDS011;4768;42.664;23.240;2022-07-21T11:59:20;2.80;;;2.50;;
9459;SDS011;4768;42.664;23.240;2022-07-21T12:01:56;3.10;;;2.45;;
9459;SDS011;4768;42.664;23.240;2022-07-21T12:04:34;2.70;;;2.30;;
9459;SDS011;4768;42.664;23.240;2022-07-21T12:07:03;2.85;;;2.40;;
9459;SDS011;4768;42.664;23.240;2022-07-21T12:09:31;2.92;;;2.42;;
9459;SDS011;4768;42.664;23.240;2022-07-21T12:11:59;5.22;;;2.60;;
9459;SDS011;4768;42.664;23.240;2022-07-21T12:14:40;2.83;;;2.55;;
9459;SDS011;4768;42.664;23.240;2022-07-21T12:17:09;3.53;;;2.72;;
9459;SDS011;4768;42.664;23.240;2022-07-21T12:19:36;2.85;;;2.60;;
9459;SDS011;4768;42.664;23.240;2022-07-21T12:22:03;5.50;;;2.65;;
9459;SDS011;4768;42.664;23.240;2022-07-21T12:24:50;3.30;;;3.00;;
9459;SDS011;4768;42.664;23.240;2022-07-21T12:27:18;2.83;;;2.63;;
9459;SDS011;4768;42.664;23.240;2022-07-21T12:29:45;5.30;;;2.95;;
9459;SDS011;4768;42.664;23.240;2022-07-21T12:32:14;3.33;;;2.88;;
9459;SDS011;4768;42.664;23.240;2022-07-21T12:35:01;2.47;;;2.28;;
9459;SDS011;4768;42.664;23.240;2022-07-21T12:40:19;3.25;;;2.95;;
9459;SDS011;4768;42.664;23.240;2022-07-21T12:42:47;2.60;;;2.17;;
9459;SDS011;4768;42.664;23.240;2022-07-21T12:45:14;4.43;;;2.67;;
9459;SDS011;4768;42.664;23.240;2022-07-21T12:47:45;3.03;;;2.30;;
9459;SDS011;4768;42.664;23.240;2022-07-21T12:50:31;3.35;;;2.00;;
9459;SDS011;4768;42.664;23.240;2022-07-21T12:52:58;6.30;;;2.38;;
9459;SDS011;4768;42.664;23.240;2022-07-21T12:55:25;2.42;;;2.22;;
9459;SDS011;4768;42.664;23.240;2022-07-21T12:57:52;2.90;;;2.40;;
9459;SDS011;4768;42.664;23.240;2022-07-21T13:00:19;2.78;;;2.20;;
9459;SDS011;4768;42.664;23.240;2022-07-21T13:02:47;3.03;;;2.38;;
9459;SDS011;4768;42.664;23.240;2022-07-21T13:05:16;3.28;;;2.70;;
9459;SDS011;4768;42.664;23.240;2022-07-21T13:07:43;3.38;;;2.30;;
9459;SDS011;4768;42.664;23.240;2022-07-21T13:10:10;4.55;;;2.65;;
9459;SDS011;4768;42.664;23.240;2022-07-21T13:12:37;10.20;;;2.72;;
9459;SDS011;4768;42.664;23.240;2022-07-21T13:15:04;2.78;;;2.42;;
9459;SDS011;4768;42.664;23.240;2022-07-21T13:17:32;6.43;;;2.63;;
9459;SDS011;4768;42.664;23.240;2022-07-21T13:20:00;5.70;;;2.50;;
9459;SDS011;4768;42.664;23.240;2022-07-21T13:22:27;4.28;;;2.30;;
9459;SDS011;4768;42.664;23.240;2022-07-21T13:24:54;2.60;;;2.30;;
9459;SDS011;4768;42.664;23.240;2022-07-21T13:27:21;4.32;;;2.40;;
9459;SDS011;4768;42.664;23.240;2022-07-21T13:29:48;3.33;;;2.65;;
9459;SDS011;4768;42.664;23.240;2022-07-21T13:32:14;2.55;;;2.35;;
9459;SDS011;4768;42.664;23.240;2022-07-21T13:34:41;3.50;;;2.38;;
9459;SDS011;4768;42.664;23.240;2022-07-21T13:37:09;2.88;;;2.58;;
9459;SDS011;4768;42.664;23.240;2022-07-21T13:39:37;3.40;;;2.42;;
9459;SDS011;4768;42.664;23.240;2022-07-21T13:42:04;4.70;;;2.70;;
9459;SDS011;4768;42.664;23.240;2022-07-21T13:44:32;2.22;;;2.00;;
9459;SDS011;4768;42.664;23.240;2022-07-21T13:46:59;3.75;;;2.45;;
9459;SDS011;4768;42.664;23.240;2022-07-21T13:49:25;2.60;;;2.40;;
9459;SDS011;4768;42.664;23.240;2022-07-21T13:51:52;2.85;;;2.58;;
9459;SDS011;4768;42.664;23.240;2022-07-21T13:54:20;6.00;;;2.15;;
9459;SDS011;4768;42.664;23.240;2022-07-21T13:56:47;2.45;;;2.25;;
9459;SDS011;4768;42.664;23.240;2022-07-21T13:59:14;8.00;;;2.67;;
9459;SDS011;4768;42.664;23.240;2022-07-21T14:01:41;3.20;;;2.63;;
9459;SDS011;4768;42.664;23.240;2022-07-21T14:04:08;4.13;;;2.58;;
9459;SDS011;4768;42.664;23.240;2022-07-21T14:06:35;10.02;;;2.60;;
9459;SDS011;4768;42.664;23.240;2022-07-21T14:09:02;2.80;;;2.60;;
9459;SDS011;4768;42.664;23.240;2022-07-21T14:11:32;5.75;;;2.40;;
9459;SDS011;4768;42.664;23.240;2022-07-21T14:14:00;3.65;;;2.50;;
9459;SDS011;4768;42.664;23.240;2022-07-21T14:16:27;5.78;;;2.50;;
9459;SDS011;4768;42.664;23.240;2022-07-21T14:18:54;3.53;;;2.45;;
9459;SDS011;4768;42.664;23.240;2022-07-21T14:21:20;3.97;;;2.40;;
9459;SDS011;4768;42.664;23.240;2022-07-21T14:23:47;7.20;;;2.40;;
9459;SDS011;4768;42.664;23.240;2022-07-21T14:26:36;4.65;;;2.30;;
9459;SDS011;4768;42.664;23.240;2022-07-21T14:29:03;3.92;;;2.30;;
9459;SDS011;4768;42.664;23.240;2022-07-21T14:31:30;3.08;;;2.28;;
9459;SDS011;4768;42.664;23.240;2022-07-21T14:33:57;7.32;;;2.50;;
9459;SDS011;4768;42.664;23.240;2022-07-21T14:36:24;12.10;;;3.35;;
9459;SDS011;4768;42.664;23.240;2022-07-21T14:38:50;2.75;;;2.33;;
9459;SDS011;4768;42.664;23.240;2022-07-21T14:41:17;7.03;;;2.60;;
9459;SDS011;4768;42.664;23.240;2022-07-21T14:43:45;6.78;;;2.58;;
9459;SDS011;4768;42.664;23.240;2022-07-21T14:46:13;3.10;;;2.63;;
9459;SDS011;4768;42.664;23.240;2022-07-21T14:48:40;3.53;;;2.45;;
9459;SDS011;4768;42.664;23.240;2022-07-21T14:51:07;3.08;;;2.30;;
9459;SDS011;4768;42.664;23.240;2022-07-21T14:53:34;3.60;;;2.45;;
9459;SDS011;4768;42.664;23.240;2022-07-21T14:56:00;5.28;;;2.35;;
9459;SDS011;4768;42.664;23.240;2022-07-21T14:58:27;8.02;;;3.08;;
9459;SDS011;4768;42.664;23.240;2022-07-21T15:00:55;4.07;;;2.78;;
9459;SDS011;4768;42.664;23.240;2022-07-21T15:03:22;20.67;;;3.45;;
9459;SDS011;4768;42.664;23.240;2022-07-21T15:05:50;4.93;;;2.38;;
9459;SDS011;4768;42.664;23.240;2022-07-21T15:08:17;6.43;;;2.30;;
9459;SDS011;4768;42.664;23.240;2022-07-21T15:10:43;4.20;;;2.40;;
9459;SDS011;4768;42.664;23.240;2022-07-21T15:13:11;7.88;;;2.97;;
9459;SDS011;4768;42.664;23.240;2022-07-21T15:15:38;5.95;;;3.15;;
9459;SDS011;4768;42.664;23.240;2022-07-21T15:18:07;2.88;;;2.20;;
9459;SDS011;4768;42.664;23.240;2022-07-21T15:20:34;2.90;;;2.22;;
9459;SDS011;4768;42.664;23.240;2022-07-21T15:23:01;3.95;;;2.38;;
9459;SDS011;4768;42.664;23.240;2022-07-21T15:25:28;7.35;;;2.47;;
9459;SDS011;4768;42.664;23.240;2022-07-21T15:27:54;5.18;;;2.60;;
9459;SDS011;4768;42.664;23.240;2022-07-21T15:30:21;6.20;;;2.50;;
9459;SDS011;4768;42.664;23.240;2022-07-21T15:32:48;4.63;;;2.20;;
9459;SDS011;4768;42.664;23.240;2022-07-21T15:35:16;6.78;;;2.50;;
9459;SDS011;4768;42.664;23.240;2022-07-21T15:37:43;4.35;;;2.40;;